Weather at Ålesund Airport, Vigra

Public forecast

Using degrees Celsius for public forecast. Weather courtesy of forecast.io.

Current aviation weather report (METAR) for Ålesund Airport, Vigra

2024/05/25 17:50 (retrieved 22 minutes ago)

ENAL 251750Z 03004KT 290V080 CAVOK 17/12 Q1019

Closest aviation forecast (TAF) to Ålesund Airport, Vigra

Closest forecast is Ørland Airport, 116.6 nm (215.9 km) NE.

2024/05/25 18:36 (retrieved 0 seconds ago)

TAF ENOL 251700Z 2518/2618 35010KT CAVOK BECMG 2518/2520 12008KT BECMG 2612/2614 35010KT PROB30 TEMPO 2615/2618 TSRA SCT030CB